Time;durP1;ratioP1;P1;durP2;ratioP2;P2;SDS_P1;SDS_P2;PMS_P1;PMS_P2;Temp;Humidity;BMP_temperature;BMP_pressure;BME280_temperature;BME280_humidity;BME280_pressure;Samples;Min_cycle;Max_cycle;Signal;HPM_P1;HPM_P2
2022/05/12 00:01:06;;;;;;;7.30;6.50;;;;;;;16.98;53.97;98109.53;106210;1277;22538;-85
2022/05/12 00:03:35;;;;;;;8.60;6.40;;;;;;;16.95;54.16;98108.25;106083;1277;137588;-85
2022/05/12 00:06:02;;;;;;;9.20;6.30;;;;;;;16.91;54.44;98105.83;106113;1277;25481;-85
2022/05/12 00:08:29;;;;;;;10.30;7.00;;;;;;;16.88;54.38;98102.51;106281;1277;22631;-85
2022/05/12 00:10:59;;;;;;;9.60;6.60;;;;;;;16.86;54.60;98102.65;106180;1277;137934;-85
2022/05/12 00:13:26;;;;;;;8.30;6.40;;;;;;;16.83;54.75;98100.73;106151;1277;25009;-85
2022/05/12 00:15:55;;;;;;;;;;;;;;;16.81;54.75;98097.95;106583;1277;137461;-87
2022/05/12 00:18:23;;;;;;;7.70;6.90;;;;;;;16.76;55.05;98096.75;106482;1278;22560;-85
2022/05/12 00:20:51;;;;;;;7.50;6.50;;;;;;;16.74;55.24;98096.55;106352;1278;22874;-85
2022/05/12 00:23:27;;;;;;;8.40;6.80;;;;;;;16.70;55.24;98092.47;106588;1277;137901;-85
2022/05/12 00:25:57;;;;;;;8.80;6.80;;;;;;;16.67;55.46;98091.09;106299;1277;22564;-85
2022/05/12 00:28:26;;;;;;;8.30;6.90;;;;;;;16.63;55.49;98091.64;106272;1277;137741;-85
2022/05/12 00:30:57;;;;;;;10.30;7.40;;;;;;;16.59;55.75;98089.86;106553;1277;25317;-84
2022/05/12 00:33:27;;;;;;;8.30;7.50;;;;;;;16.55;56.21;98090.90;106220;1281;138008;-84
2022/05/12 00:35:58;;;;;;;8.10;7.10;;;;;;;16.49;56.27;98085.09;106569;1281;22543;-85
2022/05/12 00:38:27;;;;;;;10.80;7.40;;;;;;;16.44;56.41;98086.78;106562;1278;22543;-85
2022/05/12 00:40:55;;;;;;;9.50;7.50;;;;;;;16.39;56.48;98084.00;106540;1278;137738;-85
2022/05/12 00:43:41;;;;;;;9.90;7.90;;;;;;;16.33;56.89;98086.71;106236;1280;22498;-85
2022/05/12 00:46:31;;;;;;;9.70;7.50;;;;;;;16.28;56.98;98088.95;106516;1277;137465;-85
2022/05/12 00:49:06;;;;;;;9.60;7.60;;;;;;;16.21;57.33;98084.58;106683;1281;25330;-85
2022/05/12 00:51:38;;;;;;;8.90;7.40;;;;;;;16.15;57.37;98080.52;106378;1278;138891;-85
2022/05/12 00:54:12;;;;;;;8.50;7.60;;;;;;;16.10;57.58;98082.39;106411;1277;22870;-84
2022/05/12 00:56:39;;;;;;;8.30;7.30;;;;;;;16.05;57.74;98080.52;106361;1278;22589;-85
2022/05/12 00:59:29;;;;;;;12.40;7.90;;;;;;;16.01;57.95;98081.54;106613;1277;137577;-85
2022/05/12 01:02:00;;;;;;;9.10;8.00;;;;;;;15.96;58.04;98082.30;106557;1277;22553;-85
2022/05/12 01:04:29;;;;;;;10.00;7.30;;;;;;;15.92;58.17;98082.39;106509;1277;138763;-86
2022/05/12 01:07:00;;;;;;;8.40;7.60;;;;;;;15.87;58.60;98079.09;106517;1277;25339;-85
2022/05/12 01:09:33;;;;;;;8.60;7.40;;;;;;;15.83;58.42;98081.10;106433;1277;138237;-85
2022/05/12 01:12:04;;;;;;;11.40;7.30;;;;;;;15.79;58.67;98079.98;106411;1277;24322;-85
2022/05/12 01:14:33;;;;;;;9.70;7.10;;;;;;;15.76;58.75;98080.79;106591;1277;22701;-85
2022/05/12 01:17:02;;;;;;;10.30;7.10;;;;;;;15.72;59.08;98076.63;106360;1277;138186;-85
2022/05/12 01:19:32;;;;;;;9.50;7.50;;;;;;;15.69;59.04;98079.55;106666;1277;23923;-85
2022/05/12 01:22:05;;;;;;;9.00;7.20;;;;;;;15.66;59.18;98077.33;106245;1277;138048;-85
2022/05/12 01:24:39;;;;;;;9.20;6.90;;;;;;;15.63;59.25;98072.90;106499;1277;25343;-85
2022/05/12 01:29:56;;;;;;;9.50;7.80;;;;;;;15.58;59.44;98068.70;106437;1277;24235;-86
2022/05/12 01:32:30;;;;;;;8.80;7.90;;;;;;;15.56;59.46;98069.00;106279;1280;22558;-86
2022/05/12 01:35:13;;;;;;;8.10;6.50;;;;;;;15.54;59.07;98064.42;106687;1277;137685;-85
2022/05/12 01:37:42;;;;;;;8.60;7.70;;;;;;;15.56;59.05;98063.69;106319;1279;22803;-85
2022/05/12 01:40:16;;;;;;;9.90;7.10;;;;;;;15.56;58.93;98062.42;106541;1276;137394;-86
2022/05/12 01:42:59;;;;;;;8.90;7.20;;;;;;;15.55;58.82;98065.89;106482;1277;25344;-86
2022/05/12 01:45:29;;;;;;;9.60;7.40;;;;;;;15.55;58.84;98058.96;106470;1277;138458;-86
2022/05/12 01:48:09;;;;;;;10.30;7.00;;;;;;;15.56;58.84;98056.77;106354;1278;22710;-86
2022/05/12 01:50:41;;;;;;;9.00;7.00;;;;;;;15.56;58.65;98061.33;106384;1277;25252;-86
2022/05/12 01:53:17;;;;;;;7.90;6.30;;;;;;;15.57;58.73;98062.14;106235;1280;137590;-85
2022/05/12 01:55:48;;;;;;;8.60;6.80;;;;;;;15.58;58.41;98058.66;106637;1277;24231;-85
2022/05/12 01:58:18;;;;;;;7.30;6.60;;;;;;;15.60;58.32;98060.70;106474;1277;137403;-86
2022/05/12 02:00:46;;;;;;;7.00;6.30;;;;;;;15.62;58.15;98059.80;106701;1277;22691;-85
2022/05/12 02:03:14;;;;;;;7.10;6.30;;;;;;;15.63;58.10;98061.70;106497;1277;138023;-85
2022/05/12 02:05:42;;;;;;;6.90;6.00;;;;;;;15.65;57.89;98058.29;106379;1278;22561;-86
2022/05/12 02:08:11;;;;;;;8.80;7.00;;;;;;;15.64;58.06;98056.93;106676;1277;22604;-85
2022/05/12 02:10:42;;;;;;;10.30;6.70;;;;;;;15.64;57.90;98054.30;106321;1277;137646;-85
2022/05/12 02:13:12;;;;;;;8.30;6.70;;;;;;;15.63;58.23;98054.13;106353;1278;23209;-85
2022/05/12 02:15:59;;;;;;;9.40;6.50;;;;;;;15.62;58.34;98056.06;106669;1277;137662;-86
2022/05/12 02:18:29;;;;;;;7.50;6.60;;;;;;;15.61;58.10;98051.19;106334;1277;25380;-85
2022/05/12 02:20:58;;;;;;;7.00;6.00;;;;;;;15.61;58.27;98050.75;106658;1277;22555;-86
2022/05/12 02:23:25;;;;;;;9.30;6.40;;;;;;;15.59;58.30;98051.20;106406;1277;137305;-86
2022/05/12 02:25:52;;;;;;;7.60;6.10;;;;;;;15.58;58.23;98053.73;106490;1277;23306;-85
2022/05/12 02:28:19;;;;;;;8.40;6.70;;;;;;;15.56;58.55;98049.52;106463;1277;137461;-86
2022/05/12 02:30:51;;;;;;;9.10;6.80;;;;;;;15.55;58.35;98052.98;106644;1277;25387;-86
2022/05/12 02:33:25;;;;;;;7.10;6.40;;;;;;;15.50;58.51;98047.44;106379;1277;137596;-85
2022/05/12 02:35:56;;;;;;;9.60;6.70;;;;;;;15.50;58.58;98050.17;106593;1277;22593;-85
2022/05/12 02:38:23;;;;;;;8.60;6.60;;;;;;;15.47;58.52;98053.22;106369;1278;23736;-85
2022/05/12 02:40:56;;;;;;;8.50;6.80;;;;;;;15.44;58.80;98051.23;106697;1277;137603;-85
2022/05/12 02:43:29;;;;;;;11.40;6.60;;;;;;;15.43;58.72;98055.02;106319;1278;22583;-85
2022/05/12 02:45:59;;;;;;;7.30;5.80;;;;;;;15.40;58.80;98051.31;106096;1278;137702;-84
2022/05/12 02:48:33;;;;;;;9.50;6.20;;;;;;;15.38;58.45;98047.42;106702;1277;22639;-85
2022/05/12 02:51:00;;;;;;;8.00;5.90;;;;;;;15.36;58.63;98048.86;106763;1277;22867;-85
2022/05/12 02:53:28;;;;;;;11.50;6.70;;;;;;;15.35;58.67;98047.92;106636;1277;137311;-86
2022/05/12 02:55:57;;;;;;;8.60;6.60;;;;;;;15.33;58.67;98047.67;106460;1277;23215;-85
2022/05/12 02:58:28;;;;;;;9.40;6.50;;;;;;;15.32;58.87;98046.48;106541;1277;138058;-86
2022/05/12 03:00:58;;;;;;;6.80;5.60;;;;;;;15.30;58.62;98045.56;106386;1280;22695;-86
2022/05/12 03:03:31;;;;;;;7.10;5.60;;;;;;;15.30;58.52;98043.60;106266;1278;137615;-86
2022/05/12 03:06:02;;;;;;;6.90;5.10;;;;;;;15.31;58.41;98039.25;106508;1278;25366;-86
2022/05/12 03:08:30;;;;;;;6.60;4.90;;;;;;;15.32;58.24;98040.06;106259;1279;22559;-86
2022/05/12 03:10:58;;;;;;;8.70;5.40;;;;;;;15.34;58.28;98042.07;106045;1279;137491;-86
2022/05/12 03:13:28;;;;;;;7.30;5.00;;;;;;;15.36;57.81;98037.02;106101;1280;22837;-85
2022/05/12 03:15:56;;;;;;;8.20;5.40;;;;;;;15.37;57.97;98037.39;106158;1279;137553;-86
2022/05/12 03:18:27;;;;;;;6.80;5.30;;;;;;;15.37;57.97;98039.09;106238;1277;22709;-85
2022/05/12 03:20:58;;;;;;;7.90;5.40;;;;;;;15.37;58.12;98037.21;106131;1280;22558;-86
2022/05/12 03:23:25;;;;;;;;;;;;;;;15.37;58.02;98043.48;105997;1279;137590;-86
2022/05/12 03:25:53;;;;;;;13.30;6.50;;;;;;;15.36;58.00;98044.75;106169;1277;22704;-86
2022/05/12 03:28:36;;;;;;;8.80;6.50;;;;;;;15.35;58.23;98045.91;105977;1280;137831;-85
2022/05/12 03:31:04;;;;;;;7.40;6.30;;;;;;;15.35;58.22;98047.43;106389;1277;22549;-85
2022/05/12 03:33:32;;;;;;;9.20;6.00;;;;;;;15.35;58.26;98043.77;106058;1280;138210;-85
2022/05/12 03:35:59;;;;;;;7.70;6.10;;;;;;;15.35;57.89;98047.05;106285;1277;22707;-85
2022/05/12 03:38:27;;;;;;;10.60;5.70;;;;;;;15.36;58.00;98045.41;106463;1280;22553;-85
2022/05/12 03:40:54;;;;;;;7.80;5.20;;;;;;;15.38;57.75;98049.07;105946;1280;137851;-85
2022/05/12 03:46:16;;;;;;;7.60;5.60;;;;;;;15.44;57.75;98050.88;106114;1279;137606;-85
2022/05/12 03:48:46;;;;;;;11.20;5.10;;;;;;;15.46;57.45;98052.36;106287;1277;24315;-84
2022/05/12 03:51:17;;;;;;;7.60;5.30;;;;;;;15.48;57.50;98052.39;106240;1277;137935;-85
2022/05/12 03:53:58;;;;;;;8.00;5.70;;;;;;;15.49;57.30;98050.19;106062;1277;22718;-85
2022/05/12 03:56:39;;;;;;;6.70;5.90;;;;;;;15.49;57.30;98052.23;106076;1278;24351;-85
2022/05/12 03:59:07;;;;;;;9.40;5.70;;;;;;;15.50;57.27;98052.27;106098;1277;137367;-84
2022/05/12 04:01:34;;;;;;;6.00;5.30;;;;;;;15.51;57.10;98051.38;106148;1278;24272;-87
2022/05/12 04:04:01;;;;;;;7.20;5.20;;;;;;;15.54;57.12;98054.33;106192;1277;137579;-86
2022/05/12 04:06:28;;;;;;;7.80;5.00;;;;;;;15.56;57.10;98053.25;106322;1280;22551;-85
2022/05/12 04:09:10;;;;;;;9.60;5.00;;;;;;;15.60;57.03;98048.79;106110;1277;138144;-86
2022/05/12 04:11:37;;;;;;;6.00;4.90;;;;;;;15.63;57.08;98048.86;106229;1277;25372;-86
2022/05/12 04:14:04;;;;;;;7.00;5.20;;;;;;;15.65;57.22;98049.61;106102;1277;22856;-85
2022/05/12 04:16:36;;;;;;;9.70;5.70;;;;;;;15.69;57.06;98050.30;105999;1278;137616;-86
2022/05/12 04:19:05;;;;;;;10.20;5.70;;;;;;;15.73;57.04;98045.05;106535;1277;22540;-86
2022/05/12 04:21:34;;;;;;;9.10;5.20;;;;;;;15.79;57.02;98045.23;106043;1280;138277;-87
2022/05/12 04:24:03;;;;;;;7.80;5.00;;;;;;;15.83;56.80;98045.02;106171;1277;23110;-86
2022/05/12 04:26:43;;;;;;;9.10;5.30;;;;;;;15.90;56.76;98043.52;106158;1277;24756;-86
2022/05/12 04:29:11;;;;;;;11.40;5.30;;;;;;;15.95;56.64;98037.10;106335;1277;137730;-87
2022/05/12 04:31:42;;;;;;;6.50;4.90;;;;;;;16.05;56.35;98046.30;106761;1277;23231;-86
2022/05/12 04:36:59;;;;;;;8.00;5.00;;;;;;;16.22;56.32;98040.02;106449;1277;22659;-86
2022/05/12 04:39:26;;;;;;;7.60;5.30;;;;;;;16.29;56.41;98044.54;106547;1277;137555;-87
2022/05/12 04:41:53;;;;;;;7.00;5.50;;;;;;;16.36;56.10;98044.79;106253;1278;25369;-87
2022/05/12 04:44:20;;;;;;;8.50;5.30;;;;;;;16.45;56.11;98049.52;106482;1277;22694;-86
2022/05/12 04:46:47;;;;;;;11.20;5.20;;;;;;;16.53;56.00;98051.39;106692;1278;138097;-87
2022/05/12 04:49:14;;;;;;;9.00;5.10;;;;;;;16.59;55.76;98043.46;106145;1277;22664;-87
2022/05/12 04:51:42;;;;;;;10.30;5.80;;;;;;;16.68;55.77;98049.44;106156;1277;137982;-87
2022/05/12 04:54:12;;;;;;;12.90;5.30;;;;;;;16.74;55.72;98046.05;106653;1277;22567;-88
2022/05/12 04:56:41;;;;;;;11.40;5.60;;;;;;;16.81;55.95;98039.87;106009;1277;22649;-86
2022/05/12 04:59:09;;;;;;;5.40;4.70;;;;;;;16.86;55.94;98038.45;106031;1277;137663;-86
2022/05/12 05:01:36;;;;;;;7.30;5.40;;;;;;;16.93;55.86;98037.59;106447;1277;23223;-87
2022/05/12 05:04:04;;;;;;;10.10;5.20;;;;;;;16.98;55.91;98037.95;106203;1277;138912;-88
2022/05/12 05:06:31;;;;;;;9.30;5.00;;;;;;;17.05;55.74;98039.45;106754;1277;22535;-87
2022/05/12 05:08:59;;;;;;;11.00;5.00;;;;;;;17.11;55.72;98039.25;107053;1277;23979;-87
2022/05/12 05:11:27;;;;;;;10.60;6.10;;;;;;;17.19;55.84;98041.55;106832;1277;137574;-87
2022/05/12 05:14:07;;;;;;;8.40;5.00;;;;;;;17.26;55.71;98039.50;106428;1278;22588;-88
2022/05/12 05:16:35;;;;;;;9.90;5.60;;;;;;;17.34;55.99;98039.07;106388;1277;137561;-87
2022/05/12 05:19:02;;;;;;;12.10;5.50;;;;;;;17.41;56.24;98031.64;106405;1277;22563;-88
2022/05/12 05:21:29;;;;;;;11.30;5.90;;;;;;;17.48;56.17;98035.54;106466;1277;138193;-88
2022/05/12 05:23:56;;;;;;;11.70;5.50;;;;;;;17.56;56.37;98038.37;106656;1277;22538;-85
2022/05/12 05:26:23;;;;;;;12.80;6.30;;;;;;;17.63;56.54;98037.58;106946;1277;23937;-86
2022/05/12 05:28:53;;;;;;;12.80;6.80;;;;;;;17.71;56.66;98039.90;106282;1278;137927;-87
2022/05/12 05:31:20;;;;;;;15.30;5.80;;;;;;;17.79;56.80;98043.32;106629;1277;22534;-86
2022/05/12 05:33:49;;;;;;;13.20;6.60;;;;;;;17.89;56.79;98049.41;106392;1277;138282;-88
2022/05/12 05:36:16;;;;;;;10.30;5.40;;;;;;;17.99;56.30;98044.43;106389;1280;24757;-88
2022/05/12 05:38:43;;;;;;;11.00;5.30;;;;;;;18.10;55.98;98045.38;106518;1278;22701;-88
2022/05/12 05:41:10;;;;;;;9.60;5.00;;;;;;;18.21;55.67;98045.10;106381;1277;138712;-88
2022/05/12 05:43:38;;;;;;;13.60;5.30;;;;;;;18.32;55.38;98045.33;106329;1277;22557;-88
2022/05/12 05:46:05;;;;;;;7.40;4.40;;;;;;;18.45;55.19;98046.45;106555;1277;138169;-86
2022/05/12 05:48:32;;;;;;;7.60;4.60;;;;;;;18.58;54.84;98047.70;106585;1277;22740;-87
2022/05/12 05:53:41;;;;;;;7.80;4.40;;;;;;;18.83;53.93;98050.20;106358;1278;137755;-87
2022/05/12 05:56:15;;;;;;;12.30;4.70;;;;;;;18.94;53.91;98055.04;106279;1277;23927;-86
2022/05/12 05:58:43;;;;;;;15.30;5.10;;;;;;;19.06;53.56;98045.59;106490;1279;138063;-87
2022/05/12 06:01:11;;;;;;;7.60;4.30;;;;;;;19.17;53.43;98047.14;106841;1279;22601;-89
2022/05/12 06:03:39;;;;;;;12.60;5.30;;;;;;;19.28;53.08;98049.08;107182;1277;137928;-88
2022/05/12 06:06:07;;;;;;;12.80;5.60;;;;;;;19.39;52.81;98051.30;106607;1277;22498;-87
2022/05/12 06:08:33;;;;;;;12.70;5.10;;;;;;;19.50;52.85;98049.49;106862;1279;23925;-87
2022/05/12 06:11:04;;;;;;;16.40;5.40;;;;;;;19.59;52.46;98057.73;106323;1278;137598;-87
2022/05/12 06:13:35;;;;;;;16.90;5.40;;;;;;;19.69;52.71;98057.27;106208;1278;25455;-87
2022/05/12 06:16:05;;;;;;;7.70;5.10;;;;;;;19.77;52.46;98052.18;106120;1280;137792;-87
2022/05/12 06:18:32;;;;;;;9.90;6.10;;;;;;;19.84;52.30;98054.77;106542;1279;22668;-89
2022/05/12 06:20:59;;;;;;;10.70;5.00;;;;;;;19.90;52.09;98056.36;106442;1277;23916;-87
2022/05/12 06:23:27;;;;;;;11.30;5.40;;;;;;;19.97;52.19;98055.87;106572;1277;137616;-87
2022/05/12 06:25:55;;;;;;;13.10;5.40;;;;;;;20.02;51.86;98049.28;106699;1277;22581;-87
2022/05/12 06:28:21;;;;;;;13.70;5.70;;;;;;;20.07;51.85;98057.36;106448;1277;137577;-86
2022/05/12 06:30:48;;;;;;;13.00;5.70;;;;;;;20.13;52.01;98052.59;106444;1277;25250;-88
2022/05/12 06:33:18;;;;;;;24.30;6.10;;;;;;;20.18;52.32;98052.47;106118;1277;25371;-87
2022/05/12 06:35:47;;;;;;;17.10;6.50;;;;;;;20.26;52.18;98054.04;106077;1278;137500;-87
2022/05/12 06:38:15;;;;;;;10.10;5.40;;;;;;;20.35;52.38;98054.08;106466;1278;24875;-87
2022/05/12 06:40:42;;;;;;;14.60;5.70;;;;;;;20.45;52.29;98047.93;106029;1277;137714;-86
2022/05/12 06:43:09;;;;;;;14.80;6.00;;;;;;;20.55;52.30;98047.41;106065;1278;22561;-89
2022/05/12 06:45:36;;;;;;;8.90;5.10;;;;;;;20.64;52.22;98042.91;106236;1278;138103;-87
2022/05/12 06:48:03;;;;;;;13.90;5.10;;;;;;;20.75;52.36;98041.72;106388;1277;22538;-86
2022/05/12 06:50:31;;;;;;;11.50;5.80;;;;;;;20.88;52.34;98039.41;106256;1277;23897;-87
2022/05/12 06:52:59;;;;;;;10.20;5.20;;;;;;;20.98;52.25;98035.42;106138;1278;137546;-87
2022/05/12 06:55:29;;;;;;;11.20;5.00;;;;;;;21.13;51.66;98028.27;106076;1278;22585;-86
2022/05/12 06:57:56;;;;;;;8.20;4.90;;;;;;;21.28;51.68;98020.38;106122;1277;138231;-86
2022/05/12 07:00:24;;;;;;;8.90;4.90;;;;;;;21.44;51.57;98024.73;106365;1277;22580;-87
2022/05/12 07:02:52;;;;;;;9.60;5.50;;;;;;;21.61;51.82;98025.46;106299;1277;22535;-86
2022/05/12 07:05:27;;;;;;;10.30;4.80;;;;;;;21.80;50.57;98029.05;106416;1277;137420;-87
2022/05/12 07:07:55;;;;;;;7.70;4.50;;;;;;;22.01;49.47;98039.45;106157;1278;22716;-88
2022/05/12 07:10:24;;;;;;;6.50;4.10;;;;;;;22.20;48.73;98045.79;106246;1277;137843;-85
2022/05/12 07:12:55;;;;;;;7.10;4.00;;;;;;;22.36;47.83;98046.09;106139;1277;23118;-86
2022/05/12 07:15:25;;;;;;;6.80;3.90;;;;;;;22.49;47.85;98045.05;106140;1277;22537;-87
2022/05/12 07:17:53;;;;;;;7.80;4.30;;;;;;;22.64;48.16;98042.52;106253;1277;137257;-85
2022/05/12 07:28:25;;;;;;;7.20;3.60;;;;;;;23.33;44.87;98032.20;106032;1277;137499;-83
2022/05/12 07:31:03;;;;;;;9.70;3.20;;;;;;;23.48;44.22;98021.73;106264;1277;24424;-84
2022/05/12 07:33:35;;;;;;;9.60;3.10;;;;;;;23.63;43.18;98020.13;106032;1279;137664;-87
2022/05/12 07:36:06;;;;;;;10.80;3.40;;;;;;;23.78;43.43;98016.67;106203;1280;22583;-89
2022/05/12 07:38:32;;;;;;;5.50;3.10;;;;;;;23.93;43.06;98017.72;106214;1280;22555;-87
2022/05/12 07:40:59;;;;;;;11.80;2.90;;;;;;;24.08;42.31;98016.63;106297;1277;137729;-86
2022/05/12 07:43:42;;;;;;;6.60;3.10;;;;;;;24.23;41.67;98014.45;105921;1279;22717;-83
2022/05/12 07:46:12;;;;;;;7.40;3.20;;;;;;;24.35;41.10;98018.58;105998;1278;137815;-88
2022/05/12 07:48:39;;;;;;;6.70;3.20;;;;;;;24.50;40.96;98017.14;106035;1280;22557;-85
2022/05/12 07:51:07;;;;;;;5.30;3.10;;;;;;;24.61;40.50;98012.60;105917;1278;23302;-90
2022/05/12 07:53:35;;;;;;;12.10;3.20;;;;;;;24.76;40.57;98015.67;105937;1277;138143;-88
2022/05/12 07:56:23;;;;;;;6.90;3.20;;;;;;;24.92;40.68;98016.89;106125;1277;22543;-86
2022/05/12 07:58:52;;;;;;;11.60;3.60;;;;;;;25.05;39.37;98014.11;106081;1277;137440;-85
2022/05/12 08:01:20;;;;;;;7.90;3.00;;;;;;;25.18;38.75;98016.08;106098;1277;23302;-86
2022/05/12 08:03:47;;;;;;;9.10;4.20;;;;;;;25.30;38.50;98020.67;105998;1277;137655;-85
2022/05/12 08:06:28;;;;;;;10.80;3.30;;;;;;;25.44;38.72;98027.14;106138;1277;22579;-88
2022/05/12 08:08:55;;;;;;;7.10;3.20;;;;;;;25.57;38.30;98028.38;106248;1277;25246;-88
2022/05/12 08:11:24;;;;;;;6.30;3.20;;;;;;;25.69;38.53;98022.50;106126;1277;137613;-88
2022/05/12 08:13:51;;;;;;;;;;;;;;;25.85;38.65;98020.55;106591;1277;25468;-84
2022/05/12 08:16:21;;;;;;;6.10;2.90;;;;;;;25.99;37.59;98021.13;106084;1277;123878;-86
2022/05/12 08:18:49;;;;;;;8.40;3.20;;;;;;;26.11;36.74;98025.17;106161;1278;23100;-87
2022/05/12 08:21:19;;;;;;;6.70;2.90;;;;;;;26.24;36.74;98020.56;106201;1278;24240;-86
2022/05/12 08:23:47;;;;;;;5.60;3.00;;;;;;;26.39;36.26;98023.33;106192;1277;137500;-85
2022/05/12 08:26:15;;;;;;;7.60;3.00;;;;;;;26.53;35.62;98017.77;106163;1278;22555;-87
2022/05/12 08:28:42;;;;;;;4.50;2.70;;;;;;;26.68;35.24;98023.17;106114;1276;137618;-88
2022/05/12 08:31:10;;;;;;;11.80;2.70;;;;;;;26.86;34.60;98016.73;106789;1277;26483;-86
2022/05/12 08:33:38;;;;;;;11.80;4.30;;;;;;;27.05;34.87;98023.21;106013;1280;137768;-88
2022/05/12 08:36:06;;;;;;;4.80;2.30;;;;;;;27.26;34.27;98021.05;106144;1277;22547;-85
2022/05/12 08:38:34;;;;;;;43.80;4.40;;;;;;;27.41;33.53;98033.84;106182;1278;22541;-87
2022/05/12 08:41:04;;;;;;;;;;;;;;;27.43;33.29;98033.73;106280;1277;137854;-88
2022/05/12 08:43:45;;;;;;;13.90;3.10;;;;;;;27.28;33.47;98031.81;106276;1277;24219;-88
2022/05/12 08:46:24;;;;;;;17.90;3.60;;;;;;;27.08;33.85;98038.77;106445;1277;138765;-85
2022/05/12 08:49:02;;;;;;;10.90;3.20;;;;;;;26.90;34.11;98030.32;106226;1277;22577;-84
2022/05/12 08:51:33;;;;;;;14.90;4.10;;;;;;;26.83;34.60;98034.87;105904;1277;137825;-85
2022/05/12 08:54:14;;;;;;;11.70;2.80;;;;;;;26.73;34.89;98038.77;106355;1277;22580;-86
2022/05/12 08:56:43;;;;;;;8.30;2.80;;;;;;;26.72;34.89;98037.09;106200;1277;22577;-85
2022/05/12 08:59:24;;;;;;;6.80;3.10;;;;;;;26.86;35.21;98035.73;105880;1279;137812;-85
2022/05/12 09:02:31;;;;;;;7.70;3.00;;;;;;;27.01;34.79;98027.77;106087;1279;22550;-86
2022/05/12 09:05:07;;;;;;;7.70;3.30;;;;;;;27.16;34.95;98029.60;106459;1278;137415;-87
2022/05/12 09:08:17;;;;;;;11.50;3.40;;;;;;;27.36;35.11;98028.97;106221;1280;24208;-87
2022/05/12 09:11:07;;;;;;;10.20;3.00;;;;;;;27.47;34.38;98027.41;106347;1277;137741;-86
2022/05/12 09:13:41;;;;;;;9.30;2.90;;;;;;;27.40;34.39;98030.23;106223;1277;22550;-85
2022/05/12 09:16:26;;;;;;;7.90;3.00;;;;;;;27.40;34.11;98035.66;106189;1279;137815;-88
2022/05/12 09:18:54;;;;;;;7.90;3.20;;;;;;;27.45;34.00;98033.30;106172;1280;25261;-86
2022/05/12 09:21:27;;;;;;;10.60;3.20;;;;;;;27.54;33.82;98034.35;106343;1280;22554;-84
2022/05/12 09:23:56;;;;;;;12.10;4.40;;;;;;;27.48;33.18;98031.69;106368;1278;137781;-84
2022/05/12 09:26:38;;;;;;;8.40;2.90;;;;;;;27.40;33.28;98028.16;106296;1280;24232;-87
2022/05/12 09:29:21;;;;;;;14.70;3.30;;;;;;;27.28;33.29;98028.69;106387;1278;138203;-89
2022/05/12 09:32:05;;;;;;;11.50;3.40;;;;;;;27.25;33.47;98039.65;106340;1277;22691;-87
2022/05/12 09:34:43;;;;;;;11.20;3.60;;;;;;;27.25;33.79;98042.53;106093;1280;137770;-86
2022/05/12 09:37:28;;;;;;;9.00;2.70;;;;;;;27.21;33.38;98038.42;106418;1280;22570;-89
2022/05/12 09:39:58;;;;;;;11.50;4.20;;;;;;;27.15;32.97;98044.99;106128;1280;137834;-85
2022/05/12 09:42:28;;;;;;;11.60;3.10;;;;;;;27.07;33.07;98044.41;106696;1277;25262;-88
2022/05/12 09:44:59;;;;;;;7.80;2.60;;;;;;;26.96;33.59;98050.33;106222;1279;24307;-86
2022/05/12 09:47:28;;;;;;;8.60;2.70;;;;;;;26.87;33.37;98051.39;106318;1278;137711;-83
2022/05/12 09:50:17;;;;;;;6.20;2.70;;;;;;;26.80;33.59;98056.92;106283;1280;22581;-87
2022/05/12 09:52:55;;;;;;;12.40;2.70;;;;;;;26.76;33.39;98050.80;106899;1277;137534;-86
2022/05/12 09:55:29;;;;;;;8.40;2.90;;;;;;;26.76;33.33;98050.90;106806;1280;22544;-85
2022/05/12 09:58:03;;;;;;;10.50;3.00;;;;;;;26.72;33.15;98057.82;106371;1278;137918;-87
2022/05/12 10:00:40;;;;;;;5.80;2.60;;;;;;;26.73;33.11;98054.65;106745;1278;22683;-86
2022/05/12 10:09:12;;;;;;;5.60;2.60;;;;;;;26.78;33.71;98061.16;106553;1277;24418;-86
2022/05/12 10:11:52;;;;;;;8.40;2.80;;;;;;;26.72;32.67;98054.01;106323;1277;277320;-85
2022/05/12 10:15:10;;;;;;;11.70;3.40;;;;;;;26.66;32.86;98055.22;106476;1278;22558;-88
2022/05/12 10:17:44;;;;;;;12.20;3.60;;;;;;;26.86;32.72;98058.73;105840;1279;137675;-88
2022/05/12 10:20:28;;;;;;;7.80;3.00;;;;;;;27.05;33.38;98050.21;106375;1278;22615;-84
2022/05/12 10:23:04;;;;;;;14.20;3.20;;;;;;;27.25;33.65;98050.11;106216;1277;137471;-87
2022/05/12 10:25:58;;;;;;;12.00;2.90;;;;;;;27.42;32.65;98052.73;106429;1277;25235;-85
2022/05/12 10:28:39;;;;;;;7.90;3.10;;;;;;;27.58;32.69;98055.23;106316;1277;137669;-83
2022/05/12 10:31:26;;;;;;;9.00;2.90;;;;;;;27.79;32.90;98059.15;106390;1277;22585;-88
2022/05/12 10:33:53;;;;;;;7.20;2.60;;;;;;;27.96;31.70;98046.96;106011;1277;137983;-84
2022/05/12 10:36:51;;;;;;;3.40;2.60;;;;;;;28.04;30.77;98050.86;106082;1277;22550;-86
2022/05/12 10:39:24;;;;;;;9.00;3.00;;;;;;;28.15;31.05;98048.10;106259;1278;22545;-84
2022/05/12 10:42:31;;;;;;;9.10;3.00;;;;;;;28.27;30.17;98039.35;106073;1277;137428;-85
2022/05/12 10:45:05;;;;;;;12.70;3.00;;;;;;;28.45;30.16;98044.38;105961;1279;22632;-86
2022/05/12 10:48:05;;;;;;;8.10;2.80;;;;;;;28.50;29.80;98035.03;106569;1277;137412;-87
2022/05/12 10:50:49;;;;;;;8.40;2.80;;;;;;;28.51;30.20;98046.41;105887;1280;24267;-86
2022/05/12 10:53:27;;;;;;;13.90;3.80;;;;;;;28.65;30.49;98051.23;106615;1279;137750;-86
2022/05/12 10:55:57;;;;;;;6.00;2.80;;;;;;;28.75;30.46;98057.63;106324;1279;22573;-85
2022/05/12 10:58:43;;;;;;;7.10;3.00;;;;;;;28.84;30.65;98048.88;106341;1277;138298;-87
2022/05/12 11:01:47;;;;;;;9.20;3.10;;;;;;;28.91;30.04;98050.43;106210;1277;22562;-85
2022/05/12 11:04:44;;;;;;;10.10;3.30;;;;;;;29.00;29.75;98054.96;106051;1278;137502;-86
2022/05/12 11:07:20;;;;;;;12.20;3.60;;;;;;;29.01;29.57;98051.38;106543;1277;22610;-85
2022/05/12 11:10:03;;;;;;;12.20;3.10;;;;;;;28.92;29.96;98050.04;106329;1277;137944;-84
2022/05/12 11:12:52;;;;;;;12.90;3.00;;;;;;;28.68;30.26;98057.52;106422;1277;25352;-85
2022/05/12 11:15:46;;;;;;;8.20;3.20;;;;;;;28.41;30.70;98063.76;106838;1277;24296;-85
2022/05/12 11:18:23;;;;;;;9.10;3.00;;;;;;;28.14;29.89;98062.10;106371;1277;31561;-85
2022/05/12 11:21:07;;;;;;;7.80;3.10;;;;;;;27.91;30.52;98061.71;106432;1277;22681;-83
2022/05/12 11:23:51;;;;;;;5.50;3.20;;;;;;;27.98;31.00;98056.68;107241;1277;140287;-83
2022/05/12 11:26:43;;;;;;;8.30;3.00;;;;;;;28.17;31.49;98055.34;106376;1278;22705;-84
2022/05/12 11:29:47;;;;;;;6.20;3.00;;;;;;;28.27;30.24;98057.90;106481;1277;137496;-85
2022/05/12 11:32:39;;;;;;;5.60;3.00;;;;;;;28.01;30.62;98063.75;106557;1277;25309;-86
2022/05/12 11:35:11;;;;;;;7.80;2.60;;;;;;;27.83;31.08;98062.52;106414;1277;137503;-84
2022/05/12 11:37:37;;;;;;;7.50;2.90;;;;;;;27.64;31.89;98068.91;106730;1277;22543;-85
2022/05/12 11:40:11;;;;;;;7.80;3.40;;;;;;;27.41;32.56;98071.01;106246;1277;137633;-84
2022/05/12 11:45:49;;;;;;;3.50;2.40;;;;;;;26.82;32.58;98073.21;106938;1277;22833;-82
2022/05/12 11:48:18;;;;;;;7.10;3.20;;;;;;;26.69;32.69;98072.62;106898;1277;137356;-83
2022/05/12 11:50:59;;;;;;;5.30;2.90;;;;;;;26.86;33.89;98075.80;106651;1277;22566;-84
2022/05/12 11:53:31;;;;;;;6.00;3.00;;;;;;;27.03;33.98;98075.31;107006;1278;137672;-82
2022/05/12 11:56:11;;;;;;;5.10;2.90;;;;;;;27.26;32.85;98084.96;106641;1277;24232;-84
2022/05/12 11:58:43;;;;;;;6.50;3.00;;;;;;;27.48;33.04;98081.88;106630;1279;137875;-88
2022/05/12 12:01:39;;;;;;;11.40;3.70;;;;;;;27.75;33.12;98084.80;106526;1277;22630;-85
2022/05/12 12:04:14;;;;;;;10.80;3.00;;;;;;;27.99;31.32;98086.69;106508;1277;137893;-84
2022/05/12 12:06:50;;;;;;;6.40;3.00;;;;;;;27.88;31.52;98084.03;106701;1277;23927;-88
2022/05/12 12:09:26;;;;;;;7.20;3.30;;;;;;;28.01;31.65;98087.11;106960;1277;31640;-82
2022/05/12 12:11:53;;;;;;;11.50;3.50;;;;;;;28.14;31.49;98086.88;106550;1277;137470;-85
2022/05/12 12:14:43;;;;;;;6.00;2.80;;;;;;;28.12;31.61;98091.64;106392;1277;22680;-85